1870 NOT_NAMED (1870101S09447)


IBTrACS version v04r00. Visit IBTrACS website for data access.
Please direct all questions to the IBTrACS Q and A forum

Storm track - Intensity - Wind Radii - Intensity Data - Source Data - All data

Summary Information

Storm ID 1870101S09447
Start Apr 10 18Z
End Apr 20 06Z
ATCF IDs
Track status Best track data.

Storm track plot

Map of storm track

Intensity plots

No Intensity information for this storm


Radial wind information

No radial wind information for this storm


Position and Intensity Table

BASIN ISO_TIME_________ NATURE LAT LON
degrees north degrees east
SI 1870-04-10 18:00:00 NR -8.70 86.50
SI 21:00:00 NR -8.83 86.21
SI 1870-04-11 00:00:00 NR -8.96 85.93
SI 03:00:00 NR -9.08 85.65
SI 06:00:00 NR -9.20 85.40
SI 09:00:00 NR -9.31 85.17
SI 12:00:00 NR -9.41 84.95
SI 15:00:00 NR -9.50 84.73
SI 18:00:00 NR -9.60 84.50
SI 21:00:00 NR -9.69 84.24
SI 1870-04-12 00:00:00 NR -9.78 83.97
SI 03:00:00 NR -9.88 83.69
SI 06:00:00 NR -10.00 83.40
SI 09:00:00 NR -10.16 83.12
SI 12:00:00 NR -10.33 82.82
SI 15:00:00 NR -10.52 82.52
SI 18:00:00 NR -10.70 82.20
SI 21:00:00 NR -10.85 81.86
SI 1870-04-13 00:00:00 NR -11.00 81.50
SI 03:00:00 NR -11.15 81.14
SI 06:00:00 NR -11.30 80.80
SI 09:00:00 NR -11.46 80.50
SI 12:00:00 NR -11.63 80.21
SI 15:00:00 NR -11.81 79.91
SI 18:00:00 NR -12.00 79.60
SI 21:00:00 NR -12.19 79.24
SI 1870-04-14 00:00:00 NR -12.39 78.86
SI 03:00:00 NR -12.60 78.47
SI 06:00:00 NR -12.80 78.10
SI 09:00:00 NR -12.99 77.75
SI 12:00:00 NR -13.18 77.41
SI 15:00:00 NR -13.39 77.10
SI 18:00:00 NR -13.60 76.80
SI 21:00:00 NR -13.84 76.51
SI 1870-04-15 00:00:00 NR -14.09 76.25
SI 03:00:00 NR -14.35 76.01
SI 06:00:00 NR -14.60 75.80
SI 09:00:00 NR -14.84 75.61
SI 12:00:00 NR -15.06 75.45
SI 15:00:00 NR -15.29 75.32
SI 18:00:00 NR -15.50 75.20
SI 21:00:00 NR -15.69 75.08
SI 1870-04-16 00:00:00 NR -15.87 74.97
SI 03:00:00 NR -16.07 74.88
SI 06:00:00 NR -16.30 74.80
SI 09:00:00 NR -16.59 74.72
SI 12:00:00 NR -16.91 74.66
SI 15:00:00 NR -17.25 74.61
SI 18:00:00 NR -17.60 74.60
SI 21:00:00 NR -17.94 74.62
SI 1870-04-17 00:00:00 NR -18.27 74.66
SI 03:00:00 NR -18.60 74.73
SI 06:00:00 NR -18.90 74.80
SI 09:00:00 NR -19.18 74.86
SI 12:00:00 NR -19.43 74.93
SI 15:00:00 NR -19.67 75.01
SI 18:00:00 NR -19.90 75.10
SI 21:00:00 NR -20.12 75.21
SI 1870-04-18 00:00:00 NR -20.34 75.33
SI 03:00:00 NR -20.56 75.46
SI 06:00:00 NR -20.80 75.60
SI 09:00:00 NR -21.08 75.74
SI 12:00:00 NR -21.36 75.89
SI 15:00:00 NR -21.65 76.05
SI 18:00:00 NR -21.90 76.20
SI 21:00:00 NR -22.05 76.30
SI 1870-04-19 00:00:00 NR -22.18 76.41
SI 03:00:00 NR -22.35 76.56
SI 06:00:00 NR -22.60 76.80
SI 09:00:00 NR -23.01 77.16
SI 12:00:00 NR -23.52 77.62
SI 15:00:00 NR -24.06 78.14
SI 18:00:00 NR -24.60 78.70
SI 21:00:00 NR -25.10 79.27
SI 1870-04-20 00:00:00 NR -25.55 79.84
SI 03:00:00 NR -25.98 80.42
SI 06:00:00 NR -26.40 81.00

Source Information

Agency Information
USA
TOKYO
CMA
HKO
NEWDELHI
REUNION
BOM
NADI
WELLINGTON
DS824
TD9636 cons_worldwide_trop_cyclone_18710101-19891231-005:Line=1124
TD9635
NEUMANN
MLC

All available IBTrACS Data

SEASON BASIN SUBBASIN ISO_TIME_________ NATURE LAT LON DIST2LAND LANDFALL IFLAG USA SSHS TD9636 LAT TD9636 LON TD9636 STAGE STORM SPEED STORM DIR
Year degrees north degrees east km km 1 degrees north degrees east kts degrees
1870 SI MM 1870-04-10 18:00:00 NR -8.70 86.50 1581 1581 __________O___ -1 -8.70 86.50 7 6 245
1870 SI MM 21:00:00 NR -8.83 86.21 1616 1616 __________P___ -1 -8.83 86.21 7 6 245
1870 SI MM 1870-04-11 00:00:00 NR -8.96 85.93 1655 1655 __________P___ -1 -8.96 85.93 7 6 245
1870 SI MM 03:00:00 NR -9.08 85.65 1680 1680 __________P___ -1 -9.08 85.65 7 6 245
1870 SI MM 06:00:00 NR -9.20 85.40 1714 1714 __________O___ -1 -9.20 85.40 7 5 245
1870 SI MM 09:00:00 NR -9.31 85.17 1739 1739 __________P___ -1 -9.31 85.17 7 5 245
1870 SI MM 12:00:00 NR -9.41 84.95 1773 1773 __________P___ -1 -9.41 84.95 7 5 246
1870 SI MM 15:00:00 NR -9.50 84.73 1784 1781 __________P___ -1 -9.50 84.73 7 5 247
1870 SI MM 18:00:00 NR -9.60 84.50 1789 1787 __________O___ -1 -9.60 84.50 7 5 249
1870 SI MM 21:00:00 NR -9.69 84.24 1793 1790 __________P___ -1 -9.69 84.24 7 6 251
1870 SI MM 1870-04-12 00:00:00 NR -9.78 83.97 1799 1794 __________P___ -1 -9.78 83.97 7 6 251
1870 SI MM 03:00:00 NR -9.88 83.69 1803 1799 __________P___ -1 -9.88 83.69 7 6 248
1870 SI MM 06:00:00 NR -10.00 83.40 1808 1806 __________O___ -1 -10.00 83.40 7 6 244
1870 SI MM 09:00:00 NR -10.16 83.12 1825 1823 __________P___ -1 -10.16 83.12 7 7 239
1870 SI MM 12:00:00 NR -10.33 82.82 1831 1831 __________P___ -1 -10.33 82.82 7 7 238
1870 SI MM 15:00:00 NR -10.52 82.52 1849 1849 __________P___ -1 -10.52 82.52 7 7 239
1870 SI MM 18:00:00 NR -10.70 82.20 1868 1867 __________O___ -1 -10.70 82.20 7 7 243
1870 SI MM 21:00:00 NR -10.85 81.86 1887 1885 __________P___ -1 -10.85 81.86 7 8 246
1870 SI MM 1870-04-13 00:00:00 NR -11.00 81.50 1896 1895 __________P___ -1 -11.00 81.50 7 8 247
1870 SI MM 03:00:00 NR -11.15 81.14 1905 1905 __________P___ -1 -11.15 81.14 7 8 246
1870 SI MM 06:00:00 NR -11.30 80.80 1927 1927 __________O___ -1 -11.30 80.80 7 7 243
1870 SI MM 09:00:00 NR -11.46 80.50 1949 1949 __________P___ -1 -11.46 80.50 7 7 240
1870 SI MM 12:00:00 NR -11.63 80.21 1961 1961 __________P___ -1 -11.63 80.21 7 7 239
1870 SI MM 15:00:00 NR -11.81 79.91 1984 1984 __________P___ -1 -11.81 79.91 7 7 238
1870 SI MM 18:00:00 NR -12.00 79.60 2008 2008 __________O___ -1 -12.00 79.60 7 8 240
1870 SI MM 21:00:00 NR -12.19 79.24 2033 2033 __________P___ -1 -12.19 79.24 7 8 242
1870 SI MM 1870-04-14 00:00:00 NR -12.39 78.86 2058 2058 __________P___ -1 -12.39 78.86 7 9 242
1870 SI MM 03:00:00 NR -12.60 78.47 2085 2085 __________P___ -1 -12.60 78.47 7 8 241
1870 SI MM 06:00:00 NR -12.80 78.10 2113 2113 __________O___ -1 -12.80 78.10 7 8 241
1870 SI MM 09:00:00 NR -12.99 77.75 2141 2141 __________P___ -1 -12.99 77.75 7 8 240
1870 SI MM 12:00:00 NR -13.18 77.41 2168 2168 __________P___ -1 -13.18 77.41 7 8 238
1870 SI MM 15:00:00 NR -13.39 77.10 2192 2153 __________P___ -1 -13.39 77.10 7 7 235
1870 SI MM 18:00:00 NR -13.60 76.80 2153 2115 __________O___ -1 -13.60 76.80 7 7 231
1870 SI MM 21:00:00 NR -13.84 76.51 2115 2082 __________P___ -1 -13.84 76.51 7 7 227
1870 SI MM 1870-04-15 00:00:00 NR -14.09 76.25 2072 2044 __________P___ -1 -14.09 76.25 7 7 224
1870 SI MM 03:00:00 NR -14.35 76.01 2044 2011 __________P___ -1 -14.35 76.01 7 7 221
1870 SI MM 06:00:00 NR -14.60 75.80 2011 1983 __________O___ -1 -14.60 75.80 7 6 218
1870 SI MM 09:00:00 NR -14.84 75.61 1983 1962 __________P___ -1 -14.84 75.61 7 6 216
1870 SI MM 12:00:00 NR -15.06 75.45 1962 1934 __________P___ -1 -15.06 75.45 7 5 212
1870 SI MM 15:00:00 NR -15.29 75.32 1934 1916 __________P___ -1 -15.29 75.32 7 5 210
1870 SI MM 18:00:00 NR -15.50 75.20 1916 1899 __________O___ -1 -15.50 75.20 7 5 210
1870 SI MM 21:00:00 NR -15.69 75.08 1899 1882 __________P___ -1 -15.69 75.08 7 4 211
1870 SI MM 1870-04-16 00:00:00 NR -15.87 74.97 1882 1865 __________P___ -1 -15.87 74.97 7 4 207
1870 SI MM 03:00:00 NR -16.07 74.88 1865 1848 __________P___ -1 -16.07 74.88 7 5 201
1870 SI MM 06:00:00 NR -16.30 74.80 1848 1829 __________O___ -1 -16.30 74.80 7 5 196
1870 SI MM 09:00:00 NR -16.59 74.72 1829 1820 __________P___ -1 -16.59 74.72 7 6 193
1870 SI MM 12:00:00 NR -16.91 74.66 1820 1801 __________P___ -1 -16.91 74.66 7 7 189
1870 SI MM 15:00:00 NR -17.25 74.61 1799 1791 __________P___ -1 -17.25 74.61 7 7 185
1870 SI MM 18:00:00 NR -17.60 74.60 1791 1784 __________O___ -1 -17.60 74.60 7 7 178
1870 SI MM 21:00:00 NR -17.94 74.62 1784 1778 __________P___ -1 -17.94 74.62 7 7 175
1870 SI MM 1870-04-17 00:00:00 NR -18.27 74.66 1786 1781 __________P___ -1 -18.27 74.66 7 7 171
1870 SI MM 03:00:00 NR -18.60 74.73 1781 1779 __________P___ -1 -18.60 74.73 7 6 168
1870 SI MM 06:00:00 NR -18.90 74.80 1786 1783 __________O___ -1 -18.90 74.80 7 6 168
1870 SI MM 09:00:00 NR -19.18 74.86 1792 1790 __________P___ -1 -19.18 74.86 7 5 168
1870 SI MM 12:00:00 NR -19.43 74.93 1790 1789 __________P___ -1 -19.43 74.93 7 5 164
1870 SI MM 15:00:00 NR -19.67 75.01 1797 1796 __________P___ -1 -19.67 75.01 7 5 161
1870 SI MM 18:00:00 NR -19.90 75.10 1806 1805 __________O___ -1 -19.90 75.10 7 5 157
1870 SI MM 21:00:00 NR -20.12 75.21 1814 1814 __________P___ -1 -20.12 75.21 7 5 154
1870 SI MM 1870-04-18 00:00:00 NR -20.34 75.33 1823 1823 __________P___ -1 -20.34 75.33 7 5 152
1870 SI MM 03:00:00 NR -20.56 75.46 1843 1842 __________P___ -1 -20.56 75.46 7 5 151
1870 SI MM 06:00:00 NR -20.80 75.60 1852 1852 __________O___ -1 -20.80 75.60 7 6 153
1870 SI MM 09:00:00 NR -21.08 75.74 1862 1862 __________P___ -1 -21.08 75.74 7 6 154
1870 SI MM 12:00:00 NR -21.36 75.89 1883 1883 __________P___ -1 -21.36 75.89 7 6 154
1870 SI MM 15:00:00 NR -21.65 76.05 1894 1894 __________P___ -1 -21.65 76.05 7 6 152
1870 SI MM 18:00:00 NR -21.90 76.20 1915 1915 __________O___ -1 -21.90 76.20 7 5 150
1870 SI MM 21:00:00 NR -22.05 76.30 1926 1926 __________P___ -1 -22.05 76.30 7 3 146
1870 SI MM 1870-04-19 00:00:00 NR -22.18 76.41 1937 1937 __________P___ -1 -22.18 76.41 7 4 141
1870 SI MM 03:00:00 NR -22.35 76.56 1958 1958 __________P___ -1 -22.35 76.56 7 6 139
1870 SI MM 06:00:00 NR -22.60 76.80 1981 1981 __________O___ -1 -22.60 76.80 7 9 140
1870 SI MM 09:00:00 NR -23.01 77.16 2025 2025 __________P___ -1 -23.01 77.16 7 12 141
1870 SI MM 12:00:00 NR -23.52 77.62 2071 2071 __________P___ -1 -23.52 77.62 7 14 139
1870 SI MM 15:00:00 NR -24.06 78.14 2129 2129 __________P___ -1 -24.06 78.14 7 15 138
1870 SI MM 18:00:00 NR -24.60 78.70 2197 2197 __________O___ -1 -24.60 78.70 7 15 135
1870 SI MM 21:00:00 NR -25.10 79.27 2266 2266 __________P___ -1 -25.10 79.27 7 14 133
1870 SI MM 1870-04-20 00:00:00 NR -25.55 79.84 2325 2325 __________P___ -1 -25.55 79.84 7 14 131
1870 SI MM 03:00:00 NR -25.98 80.42 2392 2392 __________P___ -1 -25.98 80.42 7 13 129
1870 SI MM 06:00:00 NR -26.40 81.00 2459 __________O___ -1 -26.40 81.00 7 13 129